Time;durP1;ratioP1;P1;durP2;ratioP2;P2;SDS_P1;SDS_P2;PMS_P1;PMS_P2;Temp;Humidity;BMP_temperature;BMP_pressure;BME280_temperature;BME280_humidity;BME280_pressure;Samples;Min_cycle;Max_cycle;Signal;HPM_P1;HPM_P2
2023/08/30 00:00:41;;;;;;;10.30;9.50;;;;;;;;;;5032305;28;20469;-72
2023/08/30 00:03:08;;;;;;;9.13;8.53;;;;;;;;;;5026798;28;20449;-72
2023/08/30 00:05:34;;;;;;;10.50;9.70;;;;;;;;;;5023691;28;20439;-72
2023/08/30 00:08:00;;;;;;;11.40;10.70;;;;;;;;;;5028684;28;20454;-72
2023/08/30 00:10:29;;;;;;;10.83;9.90;;;;;;;;;;5028641;28;20457;-72
2023/08/30 00:12:55;;;;;;;10.60;9.77;;;;;;;;;;5025089;28;20499;-71
2023/08/30 00:15:21;;;;;;;11.13;10.43;;;;;;;;;;5027052;28;20435;-70
2023/08/30 00:17:47;;;;;;;11.07;10.47;;;;;;;;;;5029286;28;20447;-71
2023/08/30 00:20:13;;;;;;;12.13;11.10;;;;;;;;;;5029234;28;21150;-71
2023/08/30 00:22:39;;;;;;;14.10;13.20;;;;;;;;;;5028153;28;20457;-72
2023/08/30 00:25:06;;;;;;;13.30;12.30;;;;;;;;;;5028882;28;20647;-71
2023/08/30 00:27:31;;;;;;;15.53;14.33;;;;;;;;;;5038955;28;20473;-72
2023/08/30 00:29:57;;;;;;;15.30;13.93;;;;;;;;;;5036610;28;21291;-72
2023/08/30 00:32:23;;;;;;;13.90;12.50;;;;;;;;;;5030497;28;20875;-72
2023/08/30 00:34:52;;;;;;;13.77;12.67;;;;;;;;;;5026991;28;20517;-72
2023/08/30 00:37:18;;;;;;;12.20;11.30;;;;;;;;;;5028927;28;20445;-72
2023/08/30 00:39:44;;;;;;;12.07;11.33;;;;;;;;;;5031059;28;20442;-72
2023/08/30 00:42:10;;;;;;;12.20;11.03;;;;;;;;;;5032601;28;20458;-71
2023/08/30 00:44:37;;;;;;;11.40;10.40;;;;;;;;;;5035738;28;20534;-71
2023/08/30 00:47:03;;;;;;;10.60;9.90;;;;;;;;;;5033173;28;20517;-72
2023/08/30 00:49:30;;;;;;;11.00;10.30;;;;;;;;;;5031045;28;20538;-72
2023/08/30 00:51:57;;;;;;;11.07;10.27;;;;;;;;;;5032649;28;20567;-72
2023/08/30 00:54:23;;;;;;;10.10;9.60;;;;;;;;;;5031945;28;20468;-71
2023/08/30 00:56:50;;;;;;;11.10;10.33;;;;;;;;;;5032706;28;20443;-71
2023/08/30 00:59:16;;;;;;;11.97;10.73;;;;;;;;;;5031802;28;20697;-71
2023/08/30 01:01:42;;;;;;;11.90;11.20;;;;;;;;;;5033996;28;20452;-71
2023/08/30 01:04:08;;;;;;;11.77;10.87;;;;;;;;;;5032211;28;20421;-71
2023/08/30 01:06:35;;;;;;;12.43;11.43;;;;;;;;;;5033697;28;20448;-72
2023/08/30 01:09:01;;;;;;;14.10;12.90;;;;;;;;;;5026193;28;20545;-72
2023/08/30 01:11:38;;;;;;;12.93;11.83;;;;;;;;;;5039980;28;20449;-71
2023/08/30 01:14:07;;;;;;;12.93;12.03;;;;;;;;;;5030397;28;20450;-71
2023/08/30 01:16:33;;;;;;;13.73;12.73;;;;;;;;;;5033105;28;20441;-72
2023/08/30 01:19:00;;;;;;;12.70;11.80;;;;;;;;;;5031551;28;20417;-71
2023/08/30 01:21:29;;;;;;;14.63;13.67;;;;;;;;;;5028661;28;20458;-72
2023/08/30 01:24:04;;;;;;;13.80;12.80;;;;;;;;;;5027009;28;20472;-71
2023/08/30 01:26:43;;;;;;;14.33;13.03;;;;;;;;;;5030095;28;21017;-72
2023/08/30 01:29:09;;;;;;;14.33;13.33;;;;;;;;;;5028348;28;20469;-72
2023/08/30 01:31:35;;;;;;;14.07;12.83;;;;;;;;;;5033336;28;20441;-71
2023/08/30 01:34:04;;;;;;;19.53;13.83;;;;;;;;;;5031132;28;20425;-71
2023/08/30 01:36:31;;;;;;;15.07;14.00;;;;;;;;;;5035699;28;20809;-71
2023/08/30 01:38:59;;;;;;;15.43;14.13;;;;;;;;;;5030818;28;20419;-72
2023/08/30 01:41:26;;;;;;;14.37;13.23;;;;;;;;;;5032238;28;20450;-72
2023/08/30 01:43:53;;;;;;;15.40;14.13;;;;;;;;;;5031271;28;20513;-71
2023/08/30 01:46:19;;;;;;;15.77;14.43;;;;;;;;;;5026748;28;20505;-72
2023/08/30 01:48:46;;;;;;;16.13;14.57;;;;;;;;;;5033154;28;20545;-73
2023/08/30 01:51:13;;;;;;;18.13;16.20;;;;;;;;;;5030692;28;20435;-72
2023/08/30 01:53:39;;;;;;;17.63;16.27;;;;;;;;;;5030901;28;20438;-72
2023/08/30 01:56:05;;;;;;;17.00;15.57;;;;;;;;;;5029321;28;21152;-72
2023/08/30 01:58:31;;;;;;;16.33;14.83;;;;;;;;;;5031585;28;20430;-72
2023/08/30 02:00:57;;;;;;;16.07;14.57;;;;;;;;;;5028150;28;21052;-72
2023/08/30 02:03:23;;;;;;;16.10;14.50;;;;;;;;;;5031836;28;20612;-71
2023/08/30 02:05:58;;;;;;;16.63;15.03;;;;;;;;;;5030471;28;20441;-72
2023/08/30 02:08:27;;;;;;;16.23;14.97;;;;;;;;;;5028775;28;20976;-72
2023/08/30 02:10:56;;;;;;;18.60;15.40;;;;;;;;;;5029224;28;20490;-72
2023/08/30 02:13:26;;;;;;;17.77;16.17;;;;;;;;;;5028431;28;20464;-72
2023/08/30 02:15:53;;;;;;;16.33;14.93;;;;;;;;;;5029513;28;20435;-72
2023/08/30 02:18:19;;;;;;;16.00;14.70;;;;;;;;;;5028006;28;20482;-72
2023/08/30 02:20:46;;;;;;;16.03;14.83;;;;;;;;;;5028778;28;20496;-71
2023/08/30 02:23:12;;;;;;;15.30;14.00;;;;;;;;;;5027500;28;20453;-71
2023/08/30 02:25:38;;;;;;;18.13;16.40;;;;;;;;;;5033084;28;20438;-71
2023/08/30 02:28:04;;;;;;;16.53;15.13;;;;;;;;;;5031484;28;20482;-71
2023/08/30 02:30:30;;;;;;;17.07;15.77;;;;;;;;;;5027783;28;20892;-70
2023/08/30 02:32:56;;;;;;;18.90;17.40;;;;;;;;;;5032760;28;20445;-71
2023/08/30 02:35:22;;;;;;;19.77;17.97;;;;;;;;;;5033153;28;20949;-72
2023/08/30 02:37:48;;;;;;;17.43;15.93;;;;;;;;;;5031120;28;20526;-71
2023/08/30 02:40:14;;;;;;;20.87;18.90;;;;;;;;;;5030453;28;20437;-72
2023/08/30 02:42:40;;;;;;;19.77;17.67;;;;;;;;;;5034432;28;20497;-71
2023/08/30 02:45:06;;;;;;;19.53;17.93;;;;;;;;;;5032177;28;20537;-71
2023/08/30 02:47:32;;;;;;;18.60;17.10;;;;;;;;;;5032190;28;20497;-70
2023/08/30 02:49:58;;;;;;;21.00;19.20;;;;;;;;;;5024668;28;20968;-72
2023/08/30 02:52:24;;;;;;;20.10;18.37;;;;;;;;;;5032116;28;20446;-71
2023/08/30 02:54:50;;;;;;;21.20;19.20;;;;;;;;;;5029339;28;20441;-74
2023/08/30 02:57:16;;;;;;;20.40;18.70;;;;;;;;;;5026619;28;20501;-72
2023/08/30 02:59:42;;;;;;;22.40;20.20;;;;;;;;;;5032969;28;20429;-72
2023/08/30 03:02:08;;;;;;;22.30;20.30;;;;;;;;;;5036587;28;21036;-71
2023/08/30 03:04:34;;;;;;;19.60;17.93;;;;;;;;;;5035182;28;20453;-72
2023/08/30 03:07:00;;;;;;;22.17;20.10;;;;;;;;;;5031073;28;20437;-71
2023/08/30 03:09:26;;;;;;;21.33;19.03;;;;;;;;;;5026701;28;20477;-71
2023/08/30 03:11:52;;;;;;;20.60;18.60;;;;;;;;;;5030058;28;20986;-71
2023/08/30 03:14:18;;;;;;;22.97;20.63;;;;;;;;;;5032202;28;20430;-71
2023/08/30 03:16:46;;;;;;;24.60;22.30;;;;;;;;;;5027946;28;20414;-71
2023/08/30 03:19:12;;;;;;;26.23;23.63;;;;;;;;;;5027771;28;20449;-72
2023/08/30 03:21:38;;;;;;;25.43;23.03;;;;;;;;;;5025148;28;20433;-71
2023/08/30 03:24:04;;;;;;;24.23;20.13;;;;;;;;;;5023759;28;20450;-71
2023/08/30 03:26:30;;;;;;;21.97;19.90;;;;;;;;;;5030884;28;20448;-71
2023/08/30 03:28:59;;;;;;;22.27;20.20;;;;;;;;;;5028580;28;21998;-72
2023/08/30 03:31:25;;;;;;;21.37;19.33;;;;;;;;;;5031513;28;20941;-71
2023/08/30 03:33:51;;;;;;;25.80;22.90;;;;;;;;;;5032999;28;21165;-72
2023/08/30 03:36:18;;;;;;;25.33;22.00;;;;;;;;;;5037698;28;20422;-71
2023/08/30 03:38:45;;;;;;;24.13;21.60;;;;;;;;;;5024008;28;20448;-72
2023/08/30 03:41:11;;;;;;;25.80;23.07;;;;;;;;;;5029684;28;20414;-72
2023/08/30 03:43:37;;;;;;;25.27;22.60;;;;;;;;;;5034464;28;20558;-71
2023/08/30 03:46:04;;;;;;;25.77;23.23;;;;;;;;;;5028077;28;20446;-71
2023/08/30 03:48:30;;;;;;;26.40;23.67;;;;;;;;;;5027218;28;20528;-72
2023/08/30 03:50:56;;;;;;;26.67;23.90;;;;;;;;;;5027774;28;20541;-71
2023/08/30 03:53:23;;;;;;;24.13;21.57;;;;;;;;;;5026750;28;20445;-71
2023/08/30 03:55:49;;;;;;;25.83;23.23;;;;;;;;;;5031486;28;20429;-72
2023/08/30 03:58:16;;;;;;;25.67;22.87;;;;;;;;;;5027547;28;20453;-72
2023/08/30 04:00:42;;;;;;;27.80;24.87;;;;;;;;;;5033533;28;20545;-72
2023/08/30 04:03:09;;;;;;;25.37;22.93;;;;;;;;;;5028094;28;20536;-72
2023/08/30 04:05:35;;;;;;;26.53;23.83;;;;;;;;;;5033304;28;20440;-71
2023/08/30 04:08:02;;;;;;;26.43;23.73;;;;;;;;;;5019810;28;20515;-72
2023/08/30 04:10:28;;;;;;;27.57;22.17;;;;;;;;;;5042321;28;20991;-72
2023/08/30 04:12:54;;;;;;;26.77;23.97;;;;;;;;;;5037535;28;20465;-72
2023/08/30 04:15:20;;;;;;;24.73;22.20;;;;;;;;;;5044460;28;20447;-71
2023/08/30 04:17:46;;;;;;;27.47;24.57;;;;;;;;;;5036066;28;20553;-71
2023/08/30 04:20:12;;;;;;;29.53;25.90;;;;;;;;;;5034281;28;20487;-72
2023/08/30 04:22:38;;;;;;;27.83;24.90;;;;;;;;;;5037739;28;20511;-71
2023/08/30 04:25:04;;;;;;;31.90;25.87;;;;;;;;;;5032372;28;20600;-72
2023/08/30 04:27:30;;;;;;;28.80;25.10;;;;;;;;;;5030161;28;20441;-72
2023/08/30 04:29:56;;;;;;;26.53;23.47;;;;;;;;;;5032465;28;20465;-71
2023/08/30 04:32:22;;;;;;;36.13;28.40;;;;;;;;;;5034965;28;20446;-72
2023/08/30 04:34:48;;;;;;;33.50;26.57;;;;;;;;;;5028850;28;20432;-71
2023/08/30 04:37:14;;;;;;;31.67;27.70;;;;;;;;;;5028489;28;20442;-72
2023/08/30 04:39:40;;;;;;;30.50;27.23;;;;;;;;;;5023603;28;20450;-70
2023/08/30 04:42:07;;;;;;;29.10;26.10;;;;;;;;;;5027242;28;20523;-71
2023/08/30 04:44:33;;;;;;;29.30;26.23;;;;;;;;;;5029399;28;20557;-72
2023/08/30 04:46:59;;;;;;;31.37;23.20;;;;;;;;;;5027985;28;20495;-72
2023/08/30 04:49:25;;;;;;;27.23;24.37;;;;;;;;;;5028296;28;20470;-71
2023/08/30 04:51:51;;;;;;;28.90;25.13;;;;;;;;;;5040015;28;20484;-72
2023/08/30 04:54:17;;;;;;;26.80;24.00;;;;;;;;;;5028999;28;20429;-72
2023/08/30 04:56:43;;;;;;;26.97;24.27;;;;;;;;;;5048617;28;20418;-72
2023/08/30 04:59:09;;;;;;;27.33;22.60;;;;;;;;;;5037675;28;20826;-70
2023/08/30 05:01:35;;;;;;;25.20;22.80;;;;;;;;;;5038094;28;20460;-73
2023/08/30 05:04:01;;;;;;;26.07;23.37;;;;;;;;;;5038550;28;20524;-72
2023/08/30 05:06:27;;;;;;;27.27;24.40;;;;;;;;;;5039427;28;20528;-72
2023/08/30 05:08:53;;;;;;;27.23;24.33;;;;;;;;;;5039286;28;20453;-71
2023/08/30 05:11:19;;;;;;;28.77;25.77;;;;;;;;;;5042553;28;20461;-71
2023/08/30 05:13:45;;;;;;;32.67;27.20;;;;;;;;;;5036461;28;20421;-72
2023/08/30 05:16:11;;;;;;;33.40;26.83;;;;;;;;;;5042640;28;20456;-70
2023/08/30 05:18:37;;;;;;;32.60;28.33;;;;;;;;;;5035236;28;20434;-71
2023/08/30 05:21:03;;;;;;;37.20;29.60;;;;;;;;;;5047726;28;20422;-72
2023/08/30 05:23:30;;;;;;;36.77;28.53;;;;;;;;;;5043954;28;20434;-73
2023/08/30 05:25:55;;;;;;;36.53;29.83;;;;;;;;;;5042763;28;20446;-71
2023/08/30 05:28:22;;;;;;;42.27;29.10;;;;;;;;;;5039546;28;20755;-72
2023/08/30 05:30:47;;;;;;;51.67;30.30;;;;;;;;;;5041503;28;20983;-72
2023/08/30 05:33:13;;;;;;;39.43;30.17;;;;;;;;;;5038145;28;20450;-72
2023/08/30 05:35:40;;;;;;;38.90;28.87;;;;;;;;;;5038991;28;20468;-72
2023/08/30 05:38:06;;;;;;;35.87;29.80;;;;;;;;;;5031875;28;20503;-72
2023/08/30 05:40:32;;;;;;;46.00;30.40;;;;;;;;;;5033344;28;20540;-72
2023/08/30 05:42:58;;;;;;;47.80;31.90;;;;;;;;;;5041796;28;20443;-73
2023/08/30 05:45:24;;;;;;;39.03;29.70;;;;;;;;;;5035745;28;20883;-72
2023/08/30 05:47:50;;;;;;;36.93;28.37;;;;;;;;;;5037856;28;20456;-73
2023/08/30 05:50:15;;;;;;;44.43;29.93;;;;;;;;;;5043234;28;20468;-72
2023/08/30 05:52:44;;;;;;;47.43;29.00;;;;;;;;;;5044004;28;20552;-72
2023/08/30 05:55:10;;;;;;;66.33;29.30;;;;;;;;;;5051776;28;20426;-71
2023/08/30 05:57:36;;;;;;;35.93;29.40;;;;;;;;;;5043644;28;20486;-72
2023/08/30 06:00:04;;;;;;;69.50;29.13;;;;;;;;;;5044472;28;20585;-72
2023/08/30 06:02:30;;;;;;;84.73;27.10;;;;;;;;;;5036403;28;20866;-71
2023/08/30 06:04:56;;;;;;;32.30;28.80;;;;;;;;;;5046379;28;20421;-72
2023/08/30 06:07:22;;;;;;;47.53;27.63;;;;;;;;;;5034030;28;20526;-72
2023/08/30 06:09:49;;;;;;;29.93;26.77;;;;;;;;;;5038294;28;20493;-73
2023/08/30 06:12:15;;;;;;;30.83;26.47;;;;;;;;;;5041062;28;20465;-73
2023/08/30 06:14:41;;;;;;;27.23;24.63;;;;;;;;;;5039952;28;21005;-72
2023/08/30 06:17:07;;;;;;;26.37;23.70;;;;;;;;;;5050079;28;20444;-73
2023/08/30 06:19:33;;;;;;;29.30;22.40;;;;;;;;;;5033598;28;20423;-73
2023/08/30 06:21:59;;;;;;;22.97;20.73;;;;;;;;;;5041820;28;20889;-71
2023/08/30 06:24:25;;;;;;;22.93;21.03;;;;;;;;;;5047196;28;20461;-73
2023/08/30 06:26:51;;;;;;;23.77;21.33;;;;;;;;;;5023278;28;20454;-73
2023/08/30 06:29:17;;;;;;;20.10;18.33;;;;;;;;;;5027415;28;20477;-72
2023/08/30 06:31:45;;;;;;;20.57;18.67;;;;;;;;;;5036217;28;20449;-72
2023/08/30 06:34:11;;;;;;;20.23;18.53;;;;;;;;;;5035334;28;20454;-72
2023/08/30 06:36:37;;;;;;;19.30;17.67;;;;;;;;;;5033537;28;20951;-73
2023/08/30 06:39:03;;;;;;;18.97;17.47;;;;;;;;;;5034847;28;20437;-73
2023/08/30 06:41:29;;;;;;;18.80;17.30;;;;;;;;;;5039390;28;20462;-73
2023/08/30 06:43:56;;;;;;;18.57;17.17;;;;;;;;;;5032873;28;21095;-73
2023/08/30 06:46:22;;;;;;;20.27;18.50;;;;;;;;;;5029942;28;20470;-74
2023/08/30 06:48:48;;;;;;;20.20;18.50;;;;;;;;;;5037555;28;20471;-72
2023/08/30 06:51:14;;;;;;;19.50;17.90;;;;;;;;;;5025825;28;20462;-72
2023/08/30 06:53:40;;;;;;;18.90;17.47;;;;;;;;;;5037147;28;20512;-72
2023/08/30 06:56:06;;;;;;;19.60;18.07;;;;;;;;;;5033199;28;20607;-71
2023/08/30 06:58:32;;;;;;;20.47;18.17;;;;;;;;;;5036584;28;20548;-73
2023/08/30 07:00:58;;;;;;;19.53;18.13;;;;;;;;;;5028693;28;20480;-72
2023/08/30 07:03:24;;;;;;;20.87;19.07;;;;;;;;;;5031401;28;20465;-72
2023/08/30 07:05:53;;;;;;;19.03;17.40;;;;;;;;;;5029937;28;20438;-71
2023/08/30 07:08:19;;;;;;;16.77;15.23;;;;;;;;;;5015156;28;20449;-73
2023/08/30 07:10:45;;;;;;;16.90;15.70;;;;;;;;;;5024394;28;20450;-71
2023/08/30 07:13:12;;;;;;;16.57;15.17;;;;;;;;;;5026559;28;20447;-73
2023/08/30 07:15:42;;;;;;;16.17;14.90;;;;;;;;;;5023412;28;20886;-71
2023/08/30 07:18:08;;;;;;;15.40;14.33;;;;;;;;;;5021426;28;20430;-72
2023/08/30 07:20:36;;;;;;;15.57;14.30;;;;;;;;;;5030328;28;20434;-72
2023/08/30 07:23:02;;;;;;;13.57;12.23;;;;;;;;;;5032688;28;20487;-71
2023/08/30 07:25:28;;;;;;;14.60;13.60;;;;;;;;;;5022900;28;20544;-73
2023/08/30 07:27:54;;;;;;;12.63;11.73;;;;;;;;;;5028260;28;20536;-74
2023/08/30 07:30:20;;;;;;;12.73;11.67;;;;;;;;;;5032011;28;20615;-73
2023/08/30 07:32:47;;;;;;;11.93;11.10;;;;;;;;;;5022517;28;20457;-73
2023/08/30 07:35:13;;;;;;;11.90;11.00;;;;;;;;;;5027909;28;20456;-72
2023/08/30 07:37:39;;;;;;;11.97;11.00;;;;;;;;;;5019129;28;20447;-72
2023/08/30 07:40:05;;;;;;;10.50;9.90;;;;;;;;;;5029782;28;20457;-72
2023/08/30 07:42:31;;;;;;;11.37;10.50;;;;;;;;;;5029581;28;20445;-72
2023/08/30 07:44:57;;;;;;;11.67;10.67;;;;;;;;;;5028405;28;20442;-72
2023/08/30 07:47:23;;;;;;;10.30;9.70;;;;;;;;;;5021899;28;20450;-72
2023/08/30 07:49:49;;;;;;;12.27;11.27;;;;;;;;;;5028361;28;20473;-71
2023/08/30 07:52:15;;;;;;;11.87;11.17;;;;;;;;;;5021892;28;20442;-71
2023/08/30 07:54:41;;;;;;;10.27;9.57;;;;;;;;;;5029824;28;21177;-72
2023/08/30 07:57:08;;;;;;;9.97;9.23;;;;;;;;;;5033190;28;20540;-73
2023/08/30 07:59:34;;;;;;;9.77;9.27;;;;;;;;;;5029046;28;20530;-73
2023/08/30 08:02:00;;;;;;;9.00;8.57;;;;;;;;;;5021194;28;20493;-75
2023/08/30 08:04:26;;;;;;;9.90;9.30;;;;;;;;;;5030851;28;20864;-72
2023/08/30 08:06:52;;;;;;;8.77;8.33;;;;;;;;;;5024002;28;20657;-72
2023/08/30 08:09:21;;;;;;;8.13;7.83;;;;;;;;;;5033022;28;20502;-73
2023/08/30 08:11:48;;;;;;;9.40;9.00;;;;;;;;;;5033810;28;20550;-73
2023/08/30 08:14:14;;;;;;;8.10;7.80;;;;;;;;;;5030198;28;20422;-71
2023/08/30 08:16:40;;;;;;;7.57;7.20;;;;;;;;;;5023878;28;20580;-72
2023/08/30 08:19:07;;;;;;;8.33;7.97;;;;;;;;;;5020207;28;20438;-73
2023/08/30 08:21:33;;;;;;;10.07;9.10;;;;;;;;;;5026261;28;20436;-72
2023/08/30 08:23:59;;;;;;;8.80;8.40;;;;;;;;;;5028645;28;20436;-72
2023/08/30 08:26:28;;;;;;;8.93;8.53;;;;;;;;;;5028200;28;20906;-71
2023/08/30 08:28:55;;;;;;;8.63;7.67;;;;;;;;;;5028545;28;20553;-71
2023/08/30 08:31:21;;;;;;;7.43;7.13;;;;;;;;;;5032902;28;20539;-73
2023/08/30 08:33:47;;;;;;;7.37;7.07;;;;;;;;;;5031266;28;20470;-73
2023/08/30 08:36:13;;;;;;;7.47;7.10;;;;;;;;;;5041594;28;20492;-72
2023/08/30 08:38:42;;;;;;;6.90;6.50;;;;;;;;;;5020104;28;20963;-72
2023/08/30 08:41:11;;;;;;;7.87;7.57;;;;;;;;;;5025847;28;20778;-72
2023/08/30 08:43:37;;;;;;;7.80;7.37;;;;;;;;;;5028307;28;20536;-72
2023/08/30 08:46:06;;;;;;;7.40;7.00;;;;;;;;;;5038746;28;20456;-73
2023/08/30 08:48:34;;;;;;;8.07;7.30;;;;;;;;;;5035715;28;20478;-72
2023/08/30 08:51:00;;;;;;;8.53;7.77;;;;;;;;;;5029761;28;20450;-73
2023/08/30 08:53:26;;;;;;;8.53;7.97;;;;;;;;;;5034929;28;20438;-73
2023/08/30 08:55:53;;;;;;;8.23;7.83;;;;;;;;;;5048045;28;20660;-72
2023/08/30 08:58:19;;;;;;;7.20;6.83;;;;;;;;;;5029213;28;20549;-71
2023/08/30 09:00:45;;;;;;;8.40;7.70;;;;;;;;;;5022768;28;20462;-71
2023/08/30 09:03:12;;;;;;;7.63;6.83;;;;;;;;;;5027263;28;20444;-71
2023/08/30 09:05:38;;;;;;;6.83;6.53;;;;;;;;;;5028705;28;20463;-70
2023/08/30 09:08:05;;;;;;;7.83;7.43;;;;;;;;;;5025515;28;20450;-73
2023/08/30 09:10:33;;;;;;;6.73;6.40;;;;;;;;;;5039242;28;20493;-72
2023/08/30 09:13:00;;;;;;;7.57;6.87;;;;;;;;;;5041986;28;20451;-71
2023/08/30 09:15:36;;;;;;;7.50;7.13;;;;;;;;;;5038976;28;20496;-72
2023/08/30 09:18:03;;;;;;;7.67;7.13;;;;;;;;;;5033236;28;20460;-73
2023/08/30 09:20:29;;;;;;;6.60;6.30;;;;;;;;;;5030826;28;20591;-72
2023/08/30 09:22:55;;;;;;;6.43;6.13;;;;;;;;;;5033328;28;20543;-73
2023/08/30 09:25:25;;;;;;;6.30;6.00;;;;;;;;;;5025364;28;20565;-72
2023/08/30 09:27:51;;;;;;;6.40;6.07;;;;;;;;;;5032846;28;20474;-73
2023/08/30 09:30:23;;;;;;;7.20;6.57;;;;;;;;;;5036900;28;20916;-72
2023/08/30 09:32:49;;;;;;;6.73;6.23;;;;;;;;;;5027529;28;20445;-73
2023/08/30 09:35:15;;;;;;;6.60;6.20;;;;;;;;;;5038020;28;21262;-72
2023/08/30 09:37:41;;;;;;;7.00;6.70;;;;;;;;;;5027756;28;20467;-73
2023/08/30 09:40:08;;;;;;;7.60;7.07;;;;;;;;;;5030812;28;20838;-73
2023/08/30 09:42:34;;;;;;;6.57;6.27;;;;;;;;;;5038299;28;20454;-72
2023/08/30 09:45:00;;;;;;;9.43;7.03;;;;;;;;;;5028403;28;20460;-73
2023/08/30 09:47:26;;;;;;;7.00;6.60;;;;;;;;;;5033485;28;21074;-72
2023/08/30 09:49:54;;;;;;;7.10;6.60;;;;;;;;;;5026038;28;20532;-73
2023/08/30 09:52:22;;;;;;;6.60;6.10;;;;;;;;;;5034936;28;20437;-72
2023/08/30 09:54:48;;;;;;;7.60;7.10;;;;;;;;;;5032005;28;20574;-72
2023/08/30 09:57:16;;;;;;;7.20;6.80;;;;;;;;;;5034866;28;20471;-73
2023/08/30 09:59:43;;;;;;;6.17;5.97;;;;;;;;;;5026703;28;20770;-72
2023/08/30 10:02:09;;;;;;;6.90;6.60;;;;;;;;;;5026375;28;20464;-74
2023/08/30 10:04:38;;;;;;;7.13;6.43;;;;;;;;;;5030962;28;20457;-74
2023/08/30 10:07:05;;;;;;;7.40;6.67;;;;;;;;;;5031022;28;20441;-73
2023/08/30 10:09:31;;;;;;;7.90;7.40;;;;;;;;;;5031005;28;20581;-73
2023/08/30 10:12:01;;;;;;;7.03;6.70;;;;;;;;;;5034102;28;21265;-74
2023/08/30 10:14:27;;;;;;;8.50;7.80;;;;;;;;;;5030377;28;20437;-73
2023/08/30 10:16:58;;;;;;;7.67;7.17;;;;;;;;;;5026774;28;20445;-72
2023/08/30 10:19:24;;;;;;;8.20;7.50;;;;;;;;;;5034527;28;20480;-72
2023/08/30 10:22:09;;;;;;;9.70;8.97;;;;;;;;;;5029034;28;20450;-74
2023/08/30 10:24:40;;;;;;;10.60;9.93;;;;;;;;;;5029020;28;20494;-75
2023/08/30 10:27:07;;;;;;;11.30;10.30;;;;;;;;;;5034507;28;20483;-73
2023/08/30 10:29:34;;;;;;;9.70;9.20;;;;;;;;;;5027867;28;20560;-74
2023/08/30 10:32:03;;;;;;;9.17;8.67;;;;;;;;;;5030920;28;20446;-73
2023/08/30 10:34:33;;;;;;;11.90;11.00;;;;;;;;;;5032153;28;20437;-73
2023/08/30 10:37:03;;;;;;;12.53;11.47;;;;;;;;;;5036334;28;20531;-72
2023/08/30 10:39:38;;;;;;;11.87;10.90;;;;;;;;;;5029954;28;20548;-73
2023/08/30 10:42:09;;;;;;;13.30;12.20;;;;;;;;;;5024166;28;20446;-73
2023/08/30 10:44:35;;;;;;;12.87;11.70;;;;;;;;;;5033866;28;21390;-72
2023/08/30 10:47:04;;;;;;;12.93;12.03;;;;;;;;;;5042936;28;20437;-74
2023/08/30 10:49:29;;;;;;;10.97;10.03;;;;;;;;;;5031472;28;20469;-74
2023/08/30 10:52:01;;;;;;;10.90;10.20;;;;;;;;;;5035959;28;20455;-73
2023/08/30 10:54:37;;;;;;;14.70;13.37;;;;;;;;;;5026981;28;20453;-73
2023/08/30 10:57:03;;;;;;;12.30;11.40;;;;;;;;;;5032173;28;20559;-73
2023/08/30 10:59:32;;;;;;;15.87;13.70;;;;;;;;;;5026656;28;20449;-76
2023/08/30 11:02:03;;;;;;;15.43;14.13;;;;;;;;;;5034580;28;20461;-76
2023/08/30 11:04:29;;;;;;;13.90;12.70;;;;;;;;;;5030239;28;20507;-74
2023/08/30 11:06:55;;;;;;;14.60;13.50;;;;;;;;;;5025486;28;21255;-75
2023/08/30 11:09:25;;;;;;;13.37;12.27;;;;;;;;;;5022545;28;20461;-75
2023/08/30 11:11:51;;;;;;;13.10;12.20;;;;;;;;;;5038868;28;20860;-74
2023/08/30 11:14:18;;;;;;;14.00;12.60;;;;;;;;;;5032926;28;20951;-74
2023/08/30 11:16:44;;;;;;;15.80;14.60;;;;;;;;;;5028476;28;21075;-74
2023/08/30 11:19:11;;;;;;;17.63;16.40;;;;;;;;;;5033434;28;20441;-75
2023/08/30 11:21:42;;;;;;;12.50;11.40;;;;;;;;;;5032094;28;20513;-73
2023/08/30 11:24:09;;;;;;;13.03;12.07;;;;;;;;;;5025189;28;20458;-74
2023/08/30 11:26:35;;;;;;;8.97;8.47;;;;;;;;;;5036521;28;20853;-73
2023/08/30 11:29:05;;;;;;;11.50;10.47;;;;;;;;;;5040499;28;20472;-74
2023/08/30 11:31:31;;;;;;;8.80;8.30;;;;;;;;;;5030096;28;20464;-73
2023/08/30 11:33:57;;;;;;;8.40;7.73;;;;;;;;;;5031095;28;21102;-74
2023/08/30 11:36:28;;;;;;;8.20;7.60;;;;;;;;;;5033727;28;20699;-74
2023/08/30 11:38:54;;;;;;;4.97;4.67;;;;;;;;;;5028759;28;20793;-73
2023/08/30 11:41:21;;;;;;;4.80;4.60;;;;;;;;;;5028190;28;20916;-73
2023/08/30 11:43:50;;;;;;;4.60;4.50;;;;;;;;;;5031167;28;20987;-73
2023/08/30 11:46:22;;;;;;;4.97;4.67;;;;;;;;;;5031433;28;20464;-72
2023/08/30 11:48:49;;;;;;;7.30;6.90;;;;;;;;;;5043250;28;20444;-76
2023/08/30 11:51:16;;;;;;;4.93;4.73;;;;;;;;;;5026769;28;20426;-73
2023/08/30 11:53:43;;;;;;;4.17;4.07;;;;;;;;;;5020345;28;20953;-72
2023/08/30 11:56:09;;;;;;;5.60;5.10;;;;;;;;;;5020071;28;20969;-73
2023/08/30 11:58:36;;;;;;;5.00;4.83;;;;;;;;;;5024144;28;20443;-74
2023/08/30 12:01:03;;;;;;;4.23;4.13;;;;;;;;;;5024641;28;20465;-74
2023/08/30 12:03:32;;;;;;;5.40;5.10;;;;;;;;;;5017945;28;20453;-73
2023/08/30 12:05:59;;;;;;;4.80;4.60;;;;;;;;;;5021468;28;20581;-74
2023/08/30 12:08:29;;;;;;;5.47;5.17;;;;;;;;;;5016479;28;20454;-73
2023/08/30 12:10:55;;;;;;;4.70;4.60;;;;;;;;;;5015051;28;20478;-73
2023/08/30 12:13:21;;;;;;;5.73;5.40;;;;;;;;;;5019991;28;20984;-74
2023/08/30 12:15:47;;;;;;;5.60;5.40;;;;;;;;;;5016882;28;20687;-72
2023/08/30 12:18:13;;;;;;;6.33;6.03;;;;;;;;;;5021524;28;20438;-73
2023/08/30 12:20:39;;;;;;;6.57;6.27;;;;;;;;;;5025270;28;20537;-73
2023/08/30 12:23:05;;;;;;;5.20;5.00;;;;;;;;;;5023313;28;20442;-75
2023/08/30 12:25:33;;;;;;;8.20;7.63;;;;;;;;;;5023654;28;20460;-74
2023/08/30 12:27:59;;;;;;;6.10;5.90;;;;;;;;;;5024519;28;20433;-73
2023/08/30 12:30:25;;;;;;;6.07;5.57;;;;;;;;;;5022988;28;20559;-72
2023/08/30 12:32:51;;;;;;;6.40;5.97;;;;;;;;;;5022265;28;20440;-72
2023/08/30 12:35:18;;;;;;;5.47;5.37;;;;;;;;;;5024804;28;20442;-76
2023/08/30 12:37:43;;;;;;;6.37;6.07;;;;;;;;;;5026062;28;20439;-72
2023/08/30 12:40:13;;;;;;;6.03;5.73;;;;;;;;;;5019908;28;20552;-72
2023/08/30 12:42:39;;;;;;;5.47;5.20;;;;;;;;;;5025595;28;20453;-72
2023/08/30 12:45:07;;;;;;;5.87;5.53;;;;;;;;;;5024757;28;20562;-73
2023/08/30 12:47:33;;;;;;;5.73;5.53;;;;;;;;;;5022717;28;20794;-74
2023/08/30 12:49:59;;;;;;;6.90;6.47;;;;;;;;;;5022431;28;20490;-72
2023/08/30 12:52:25;;;;;;;6.87;6.43;;;;;;;;;;5021467;28;20457;-72
2023/08/30 12:54:52;;;;;;;6.13;5.93;;;;;;;;;;5027643;28;20851;-72
2023/08/30 12:57:18;;;;;;;5.73;5.60;;;;;;;;;;5021269;28;20996;-72
2023/08/30 12:59:44;;;;;;;5.87;5.67;;;;;;;;;;5023807;28;20934;-73
2023/08/30 13:02:10;;;;;;;6.47;6.20;;;;;;;;;;5022052;28;20581;-73
2023/08/30 13:04:37;;;;;;;5.60;5.40;;;;;;;;;;5023786;28;20557;-72
2023/08/30 13:07:03;;;;;;;6.50;6.20;;;;;;;;;;5023550;28;20441;-73
2023/08/30 13:09:29;;;;;;;8.00;7.60;;;;;;;;;;5023035;28;20557;-73
2023/08/30 13:11:55;;;;;;;6.90;6.60;;;;;;;;;;5028397;28;20549;-73
2023/08/30 13:14:21;;;;;;;7.20;6.70;;;;;;;;;;5027121;28;20451;-74
2023/08/30 13:16:47;;;;;;;7.10;6.90;;;;;;;;;;5021572;28;20448;-73
2023/08/30 13:19:13;;;;;;;7.40;7.13;;;;;;;;;;5023996;28;20462;-73
2023/08/30 13:21:39;;;;;;;9.27;8.70;;;;;;;;;;5024355;28;20438;-76
2023/08/30 13:24:05;;;;;;;8.00;7.60;;;;;;;;;;5024866;28;21077;-74
2023/08/30 13:26:31;;;;;;;8.93;8.43;;;;;;;;;;5024146;28;20454;-73
2023/08/30 13:28:58;;;;;;;9.83;9.23;;;;;;;;;;5019692;28;20480;-73
2023/08/30 13:31:24;;;;;;;8.40;8.00;;;;;;;;;;5018885;28;20543;-72
2023/08/30 13:33:50;;;;;;;8.07;7.67;;;;;;;;;;5030279;28;20570;-73
2023/08/30 13:36:16;;;;;;;9.00;8.50;;;;;;;;;;5021396;28;20714;-72
2023/08/30 13:38:42;;;;;;;9.27;8.70;;;;;;;;;;5020334;28;21208;-74
2023/08/30 13:41:08;;;;;;;8.93;8.43;;;;;;;;;;5022468;28;20433;-72
2023/08/30 13:43:34;;;;;;;9.83;9.33;;;;;;;;;;5023758;28;20537;-73
2023/08/30 13:46:00;;;;;;;9.00;8.60;;;;;;;;;;5023845;28;20866;-74
2023/08/30 13:48:26;;;;;;;8.40;8.00;;;;;;;;;;5023852;28;20457;-72
2023/08/30 13:50:52;;;;;;;8.93;8.43;;;;;;;;;;5019391;28;20541;-74
2023/08/30 13:53:18;;;;;;;7.80;7.40;;;;;;;;;;5021996;28;20712;-74
2023/08/30 13:55:53;;;;;;;8.87;8.30;;;;;;;;;;5020602;28;20482;-73
2023/08/30 13:58:19;;;;;;;7.17;6.83;;;;;;;;;;5023387;28;20453;-73
2023/08/30 14:00:45;;;;;;;8.33;7.87;;;;;;;;;;5021946;28;20462;-74
2023/08/30 14:03:12;;;;;;;6.87;6.57;;;;;;;;;;5024737;28;20646;-72
2023/08/30 14:05:40;;;;;;;7.23;6.93;;;;;;;;;;5024525;28;20446;-71
2023/08/30 14:08:07;;;;;;;7.17;6.87;;;;;;;;;;5016037;28;20441;-73
2023/08/30 14:10:33;;;;;;;8.00;7.60;;;;;;;;;;5011074;28;20465;-74
2023/08/30 14:12:59;;;;;;;8.00;7.60;;;;;;;;;;5022887;28;20564;-75
2023/08/30 14:15:25;;;;;;;8.43;7.80;;;;;;;;;;5024220;28;20984;-75
2023/08/30 14:17:51;;;;;;;8.10;7.53;;;;;;;;;;5023856;28;20528;-74
2023/08/30 14:20:20;;;;;;;8.10;7.70;;;;;;;;;;5022501;28;20458;-74
2023/08/30 14:22:46;;;;;;;7.50;7.10;;;;;;;;;;5024946;28;20868;-73